sensor_id;sensor_type;location;lat;lon;timestamp;temperature;humidity
9103;DHT22;4587;51.434;6.788;2024-02-26T00:02:18;7.40;99.90
9103;DHT22;4587;51.434;6.788;2024-02-26T00:04:44;7.40;99.90
9103;DHT22;4587;51.434;6.788;2024-02-26T00:07:09;7.30;99.90
9103;DHT22;4587;51.434;6.788;2024-02-26T00:09:35;7.30;99.90
9103;DHT22;4587;51.434;6.788;2024-02-26T00:12:03;7.30;99.90
9103;DHT22;4587;51.434;6.788;2024-02-26T00:14:29;7.30;99.90
9103;DHT22;4587;51.434;6.788;2024-02-26T00:16:55;7.30;99.90
9103;DHT22;4587;51.434;6.788;2024-02-26T00:19:20;7.30;99.90
9103;DHT22;4587;51.434;6.788;2024-02-26T00:21:46;7.20;99.90
9103;DHT22;4587;51.434;6.788;2024-02-26T00:24:11;7.20;99.90
9103;DHT22;4587;51.434;6.788;2024-02-26T00:26:37;7.20;99.90
9103;DHT22;4587;51.434;6.788;2024-02-26T00:29:03;7.30;99.90
9103;DHT22;4587;51.434;6.788;2024-02-26T00:31:28;7.20;99.90
9103;DHT22;4587;51.434;6.788;2024-02-26T00:33:54;7.30;99.90
9103;DHT22;4587;51.434;6.788;2024-02-26T00:36:19;7.30;99.90
9103;DHT22;4587;51.434;6.788;2024-02-26T00:38:45;7.20;99.90
9103;DHT22;4587;51.434;6.788;2024-02-26T00:41:20;7.20;99.90
9103;DHT22;4587;51.434;6.788;2024-02-26T00:43:46;7.30;99.90
9103;DHT22;4587;51.434;6.788;2024-02-26T00:46:11;7.30;99.90
9103;DHT22;4587;51.434;6.788;2024-02-26T00:48:38;7.40;99.90
9103;DHT22;4587;51.434;6.788;2024-02-26T00:51:04;7.30;99.90
9103;DHT22;4587;51.434;6.788;2024-02-26T00:53:33;7.30;99.90
9103;DHT22;4587;51.434;6.788;2024-02-26T00:55:58;7.30;99.90
9103;DHT22;4587;51.434;6.788;2024-02-26T00:58:24;7.30;99.90
9103;DHT22;4587;51.434;6.788;2024-02-26T01:00:50;7.20;99.90
9103;DHT22;4587;51.434;6.788;2024-02-26T01:03:17;7.10;99.90
9103;DHT22;4587;51.434;6.788;2024-02-26T01:05:42;7.20;99.90
9103;DHT22;4587;51.434;6.788;2024-02-26T01:08:08;7.20;99.90
9103;DHT22;4587;51.434;6.788;2024-02-26T01:10:33;7.20;99.90
9103;DHT22;4587;51.434;6.788;2024-02-26T01:12:59;7.30;99.90
9103;DHT22;4587;51.434;6.788;2024-02-26T01:15:25;7.30;99.90
9103;DHT22;4587;51.434;6.788;2024-02-26T01:17:51;7.30;99.90
9103;DHT22;4587;51.434;6.788;2024-02-26T01:20:17;7.30;99.90
9103;DHT22;4587;51.434;6.788;2024-02-26T01:22:43;7.40;99.90
9103;DHT22;4587;51.434;6.788;2024-02-26T01:25:09;7.40;99.90
9103;DHT22;4587;51.434;6.788;2024-02-26T01:27:35;7.40;99.90
9103;DHT22;4587;51.434;6.788;2024-02-26T01:30:05;7.40;99.90
9103;DHT22;4587;51.434;6.788;2024-02-26T01:32:31;7.40;99.90
9103;DHT22;4587;51.434;6.788;2024-02-26T01:34:57;7.40;99.90
9103;DHT22;4587;51.434;6.788;2024-02-26T01:37:22;7.40;99.90
9103;DHT22;4587;51.434;6.788;2024-02-26T01:39:48;7.30;99.90
9103;DHT22;4587;51.434;6.788;2024-02-26T01:42:14;7.30;99.90
9103;DHT22;4587;51.434;6.788;2024-02-26T01:44:39;7.30;99.90
9103;DHT22;4587;51.434;6.788;2024-02-26T01:47:10;7.30;99.90
9103;DHT22;4587;51.434;6.788;2024-02-26T01:49:36;7.30;99.90
9103;DHT22;4587;51.434;6.788;2024-02-26T01:52:03;7.20;99.90
9103;DHT22;4587;51.434;6.788;2024-02-26T01:54:30;7.30;99.90
9103;DHT22;4587;51.434;6.788;2024-02-26T01:56:56;7.30;99.90
9103;DHT22;4587;51.434;6.788;2024-02-26T01:59:22;7.30;99.90
9103;DHT22;4587;51.434;6.788;2024-02-26T02:01:51;7.30;99.90
9103;DHT22;4587;51.434;6.788;2024-02-26T02:04:18;7.30;99.90
9103;DHT22;4587;51.434;6.788;2024-02-26T02:06:45;7.30;99.90
9103;DHT22;4587;51.434;6.788;2024-02-26T02:09:11;7.40;99.90
9103;DHT22;4587;51.434;6.788;2024-02-26T02:11:37;7.40;99.90
9103;DHT22;4587;51.434;6.788;2024-02-26T02:14:03;7.30;99.90
9103;DHT22;4587;51.434;6.788;2024-02-26T02:16:29;7.40;99.90
9103;DHT22;4587;51.434;6.788;2024-02-26T02:18:54;7.30;99.90
9103;DHT22;4587;51.434;6.788;2024-02-26T02:21:20;7.20;99.90
9103;DHT22;4587;51.434;6.788;2024-02-26T02:23:45;7.20;99.90
9103;DHT22;4587;51.434;6.788;2024-02-26T02:26:13;7.20;99.90
9103;DHT22;4587;51.434;6.788;2024-02-26T02:28:39;7.20;99.90
9103;DHT22;4587;51.434;6.788;2024-02-26T02:31:05;7.20;99.90
9103;DHT22;4587;51.434;6.788;2024-02-26T02:33:31;7.20;99.90
9103;DHT22;4587;51.434;6.788;2024-02-26T02:35:58;7.30;99.90
9103;DHT22;4587;51.434;6.788;2024-02-26T02:38:24;7.30;99.90
9103;DHT22;4587;51.434;6.788;2024-02-26T02:40:51;7.30;99.90
9103;DHT22;4587;51.434;6.788;2024-02-26T02:43:17;7.20;99.90
9103;DHT22;4587;51.434;6.788;2024-02-26T02:45:42;7.20;99.90
9103;DHT22;4587;51.434;6.788;2024-02-26T02:48:08;7.10;99.90
9103;DHT22;4587;51.434;6.788;2024-02-26T02:50:33;7.10;99.90
9103;DHT22;4587;51.434;6.788;2024-02-26T02:52:59;7.10;99.90
9103;DHT22;4587;51.434;6.788;2024-02-26T02:55:25;7.00;99.90
9103;DHT22;4587;51.434;6.788;2024-02-26T02:57:50;7.00;99.90
9103;DHT22;4587;51.434;6.788;2024-02-26T03:00:16;7.10;99.90
9103;DHT22;4587;51.434;6.788;2024-02-26T03:02:42;7.10;99.90
9103;DHT22;4587;51.434;6.788;2024-02-26T03:05:08;7.10;99.90
9103;DHT22;4587;51.434;6.788;2024-02-26T03:07:34;7.10;99.90
9103;DHT22;4587;51.434;6.788;2024-02-26T03:09:59;7.10;99.90
9103;DHT22;4587;51.434;6.788;2024-02-26T03:12:25;7.10;99.90
9103;DHT22;4587;51.434;6.788;2024-02-26T03:14:51;7.10;99.90
9103;DHT22;4587;51.434;6.788;2024-02-26T03:17:17;7.10;99.90
9103;DHT22;4587;51.434;6.788;2024-02-26T03:19:44;7.10;99.90
9103;DHT22;4587;51.434;6.788;2024-02-26T03:22:12;7.00;99.90
9103;DHT22;4587;51.434;6.788;2024-02-26T03:24:38;7.00;99.90
9103;DHT22;4587;51.434;6.788;2024-02-26T03:27:03;7.00;99.90
9103;DHT22;4587;51.434;6.788;2024-02-26T03:29:37;7.00;99.90
9103;DHT22;4587;51.434;6.788;2024-02-26T03:32:04;7.00;99.90
9103;DHT22;4587;51.434;6.788;2024-02-26T03:34:29;6.90;99.90
9103;DHT22;4587;51.434;6.788;2024-02-26T03:36:56;6.90;99.90
9103;DHT22;4587;51.434;6.788;2024-02-26T03:39:21;6.90;99.90
9103;DHT22;4587;51.434;6.788;2024-02-26T03:41:48;6.70;99.90
9103;DHT22;4587;51.434;6.788;2024-02-26T03:44:13;6.70;99.90
9103;DHT22;4587;51.434;6.788;2024-02-26T03:46:39;6.60;99.90
9103;DHT22;4587;51.434;6.788;2024-02-26T03:49:04;6.50;99.90
9103;DHT22;4587;51.434;6.788;2024-02-26T03:51:30;6.50;99.90
9103;DHT22;4587;51.434;6.788;2024-02-26T03:53:57;6.60;99.90
9103;DHT22;4587;51.434;6.788;2024-02-26T03:56:23;6.60;99.90
9103;DHT22;4587;51.434;6.788;2024-02-26T03:58:49;6.60;99.90
9103;DHT22;4587;51.434;6.788;2024-02-26T04:01:15;6.50;99.90
9103;DHT22;4587;51.434;6.788;2024-02-26T04:03:41;6.50;99.90
9103;DHT22;4587;51.434;6.788;2024-02-26T04:06:10;6.50;99.90
9103;DHT22;4587;51.434;6.788;2024-02-26T04:08:36;6.50;99.90
9103;DHT22;4587;51.434;6.788;2024-02-26T04:11:03;6.50;99.90
9103;DHT22;4587;51.434;6.788;2024-02-26T04:13:35;6.50;99.90
9103;DHT22;4587;51.434;6.788;2024-02-26T04:16:04;6.50;99.90
9103;DHT22;4587;51.434;6.788;2024-02-26T04:18:29;6.50;99.90
9103;DHT22;4587;51.434;6.788;2024-02-26T04:20:55;6.40;99.90
9103;DHT22;4587;51.434;6.788;2024-02-26T04:23:22;6.40;99.90
9103;DHT22;4587;51.434;6.788;2024-02-26T04:25:47;6.40;99.90
9103;DHT22;4587;51.434;6.788;2024-02-26T04:28:13;6.30;99.90
9103;DHT22;4587;51.434;6.788;2024-02-26T04:30:39;6.40;99.90
9103;DHT22;4587;51.434;6.788;2024-02-26T04:33:04;6.30;99.90
9103;DHT22;4587;51.434;6.788;2024-02-26T04:35:30;6.30;99.90
9103;DHT22;4587;51.434;6.788;2024-02-26T04:37:56;6.30;99.90
9103;DHT22;4587;51.434;6.788;2024-02-26T04:40:21;6.30;99.90
9103;DHT22;4587;51.434;6.788;2024-02-26T04:42:47;6.30;99.90
9103;DHT22;4587;51.434;6.788;2024-02-26T04:45:12;6.30;99.90
9103;DHT22;4587;51.434;6.788;2024-02-26T04:47:38;6.30;99.90
9103;DHT22;4587;51.434;6.788;2024-02-26T04:50:05;6.30;99.90
9103;DHT22;4587;51.434;6.788;2024-02-26T04:52:30;6.30;99.90
9103;DHT22;4587;51.434;6.788;2024-02-26T04:54:56;6.30;99.90
9103;DHT22;4587;51.434;6.788;2024-02-26T04:57:22;6.30;99.90
9103;DHT22;4587;51.434;6.788;2024-02-26T04:59:47;6.30;99.90
9103;DHT22;4587;51.434;6.788;2024-02-26T05:02:13;6.30;99.90
9103;DHT22;4587;51.434;6.788;2024-02-26T05:04:39;6.30;99.90
9103;DHT22;4587;51.434;6.788;2024-02-26T05:07:04;6.30;99.90
9103;DHT22;4587;51.434;6.788;2024-02-26T05:09:30;6.20;99.90
9103;DHT22;4587;51.434;6.788;2024-02-26T05:11:55;6.20;99.90
9103;DHT22;4587;51.434;6.788;2024-02-26T05:14:21;6.20;99.90
9103;DHT22;4587;51.434;6.788;2024-02-26T05:16:47;6.20;99.90
9103;DHT22;4587;51.434;6.788;2024-02-26T05:19:13;6.20;99.90
9103;DHT22;4587;51.434;6.788;2024-02-26T05:21:39;6.10;99.90
9103;DHT22;4587;51.434;6.788;2024-02-26T05:24:05;6.10;99.90
9103;DHT22;4587;51.434;6.788;2024-02-26T05:26:31;6.00;99.90
9103;DHT22;4587;51.434;6.788;2024-02-26T05:28:57;6.10;99.90
9103;DHT22;4587;51.434;6.788;2024-02-26T05:31:26;6.00;99.90
9103;DHT22;4587;51.434;6.788;2024-02-26T05:33:51;6.00;99.90
9103;DHT22;4587;51.434;6.788;2024-02-26T05:36:21;6.00;99.90
9103;DHT22;4587;51.434;6.788;2024-02-26T05:38:47;6.00;99.90
9103;DHT22;4587;51.434;6.788;2024-02-26T05:41:17;6.00;99.90
9103;DHT22;4587;51.434;6.788;2024-02-26T05:43:51;6.00;99.90
9103;DHT22;4587;51.434;6.788;2024-02-26T05:46:17;5.90;99.90
9103;DHT22;4587;51.434;6.788;2024-02-26T05:48:44;5.90;99.90
9103;DHT22;4587;51.434;6.788;2024-02-26T05:51:09;5.90;99.90
9103;DHT22;4587;51.434;6.788;2024-02-26T05:53:35;5.90;99.90
9103;DHT22;4587;51.434;6.788;2024-02-26T05:56:01;5.90;99.90
9103;DHT22;4587;51.434;6.788;2024-02-26T05:58:26;5.90;99.90
9103;DHT22;4587;51.434;6.788;2024-02-26T06:00:52;5.90;99.90
9103;DHT22;4587;51.434;6.788;2024-02-26T06:03:17;6.00;99.90
9103;DHT22;4587;51.434;6.788;2024-02-26T06:05:43;5.90;99.90
9103;DHT22;4587;51.434;6.788;2024-02-26T06:08:09;5.90;99.90
9103;DHT22;4587;51.434;6.788;2024-02-26T06:10:34;5.80;99.90
9103;DHT22;4587;51.434;6.788;2024-02-26T06:13:00;5.90;99.90
9103;DHT22;4587;51.434;6.788;2024-02-26T06:15:25;5.90;99.90
9103;DHT22;4587;51.434;6.788;2024-02-26T06:17:51;5.80;99.90
9103;DHT22;4587;51.434;6.788;2024-02-26T06:20:16;5.80;99.90
9103;DHT22;4587;51.434;6.788;2024-02-26T06:22:42;5.80;99.90
9103;DHT22;4587;51.434;6.788;2024-02-26T06:25:08;5.90;99.90
9103;DHT22;4587;51.434;6.788;2024-02-26T06:27:34;5.90;99.90
9103;DHT22;4587;51.434;6.788;2024-02-26T06:30:00;5.90;99.90
9103;DHT22;4587;51.434;6.788;2024-02-26T06:32:25;5.90;99.90
9103;DHT22;4587;51.434;6.788;2024-02-26T06:34:53;5.90;99.90
9103;DHT22;4587;51.434;6.788;2024-02-26T06:37:19;5.80;99.90
9103;DHT22;4587;51.434;6.788;2024-02-26T06:39:44;5.90;99.90
9103;DHT22;4587;51.434;6.788;2024-02-26T06:42:10;5.90;99.90
9103;DHT22;4587;51.434;6.788;2024-02-26T06:44:35;5.90;99.90
9103;DHT22;4587;51.434;6.788;2024-02-26T06:47:01;5.90;99.90
9103;DHT22;4587;51.434;6.788;2024-02-26T06:49:27;5.90;99.90
9103;DHT22;4587;51.434;6.788;2024-02-26T06:51:53;6.00;99.90
9103;DHT22;4587;51.434;6.788;2024-02-26T06:54:18;5.90;99.90
9103;DHT22;4587;51.434;6.788;2024-02-26T06:56:44;5.90;99.90
9103;DHT22;4587;51.434;6.788;2024-02-26T06:59:10;5.90;99.90
9103;DHT22;4587;51.434;6.788;2024-02-26T07:01:36;5.90;99.90
9103;DHT22;4587;51.434;6.788;2024-02-26T07:04:01;5.90;99.90
9103;DHT22;4587;51.434;6.788;2024-02-26T07:06:27;5.90;99.90
9103;DHT22;4587;51.434;6.788;2024-02-26T07:08:53;6.00;99.90
9103;DHT22;4587;51.434;6.788;2024-02-26T07:11:19;6.00;99.90
9103;DHT22;4587;51.434;6.788;2024-02-26T07:13:45;5.90;99.90
9103;DHT22;4587;51.434;6.788;2024-02-26T07:16:11;5.90;99.90
9103;DHT22;4587;51.434;6.788;2024-02-26T07:18:37;6.00;99.90
9103;DHT22;4587;51.434;6.788;2024-02-26T07:21:03;6.10;99.90
9103;DHT22;4587;51.434;6.788;2024-02-26T07:23:29;6.10;99.90
9103;DHT22;4587;51.434;6.788;2024-02-26T07:25:54;6.10;99.90
9103;DHT22;4587;51.434;6.788;2024-02-26T07:28:20;6.10;99.90
9103;DHT22;4587;51.434;6.788;2024-02-26T07:30:46;6.10;99.90
9103;DHT22;4587;51.434;6.788;2024-02-26T07:33:11;6.10;99.90
9103;DHT22;4587;51.434;6.788;2024-02-26T07:35:37;6.10;99.90
9103;DHT22;4587;51.434;6.788;2024-02-26T07:38:07;6.00;99.90
9103;DHT22;4587;51.434;6.788;2024-02-26T07:40:32;6.10;99.90
9103;DHT22;4587;51.434;6.788;2024-02-26T07:42:58;6.10;99.90
9103;DHT22;4587;51.434;6.788;2024-02-26T07:45:23;6.20;99.90
9103;DHT22;4587;51.434;6.788;2024-02-26T07:47:49;6.10;99.90
9103;DHT22;4587;51.434;6.788;2024-02-26T07:50:16;6.10;99.90
9103;DHT22;4587;51.434;6.788;2024-02-26T07:52:42;6.10;99.90
9103;DHT22;4587;51.434;6.788;2024-02-26T07:55:07;6.10;99.90
9103;DHT22;4587;51.434;6.788;2024-02-26T07:57:33;6.20;99.90
9103;DHT22;4587;51.434;6.788;2024-02-26T07:59:59;6.20;99.90
9103;DHT22;4587;51.434;6.788;2024-02-26T08:02:25;6.20;99.90
9103;DHT22;4587;51.434;6.788;2024-02-26T08:04:51;6.20;99.90
9103;DHT22;4587;51.434;6.788;2024-02-26T08:07:16;6.10;99.90
9103;DHT22;4587;51.434;6.788;2024-02-26T08:09:42;6.10;99.90
9103;DHT22;4587;51.434;6.788;2024-02-26T08:12:08;6.20;99.90
9103;DHT22;4587;51.434;6.788;2024-02-26T08:14:33;6.20;99.90
9103;DHT22;4587;51.434;6.788;2024-02-26T08:16:59;6.20;99.90
9103;DHT22;4587;51.434;6.788;2024-02-26T08:19:25;6.30;99.90
9103;DHT22;4587;51.434;6.788;2024-02-26T08:21:51;6.30;99.90
9103;DHT22;4587;51.434;6.788;2024-02-26T08:24:17;6.30;99.90
9103;DHT22;4587;51.434;6.788;2024-02-26T08:26:42;6.30;99.90
9103;DHT22;4587;51.434;6.788;2024-02-26T08:29:08;6.30;99.90
9103;DHT22;4587;51.434;6.788;2024-02-26T08:31:33;6.30;99.90
9103;DHT22;4587;51.434;6.788;2024-02-26T08:34:01;6.20;99.90
9103;DHT22;4587;51.434;6.788;2024-02-26T08:36:28;6.30;99.90
9103;DHT22;4587;51.434;6.788;2024-02-26T08:38:53;6.30;99.90
9103;DHT22;4587;51.434;6.788;2024-02-26T08:41:19;6.30;99.90
9103;DHT22;4587;51.434;6.788;2024-02-26T08:43:44;6.20;99.90
9103;DHT22;4587;51.434;6.788;2024-02-26T08:46:10;6.30;99.90
9103;DHT22;4587;51.434;6.788;2024-02-26T08:48:38;6.40;99.90
9103;DHT22;4587;51.434;6.788;2024-02-26T08:51:06;6.30;99.90
9103;DHT22;4587;51.434;6.788;2024-02-26T08:53:32;6.30;99.90
9103;DHT22;4587;51.434;6.788;2024-02-26T08:55:57;6.30;99.90
9103;DHT22;4587;51.434;6.788;2024-02-26T08:58:23;6.40;99.90
9103;DHT22;4587;51.434;6.788;2024-02-26T09:00:48;6.40;99.90
9103;DHT22;4587;51.434;6.788;2024-02-26T09:03:14;6.40;99.90
9103;DHT22;4587;51.434;6.788;2024-02-26T09:05:39;6.40;99.90
9103;DHT22;4587;51.434;6.788;2024-02-26T09:08:05;6.40;99.90
9103;DHT22;4587;51.434;6.788;2024-02-26T09:10:31;6.40;99.90
9103;DHT22;4587;51.434;6.788;2024-02-26T09:12:58;6.40;99.90
9103;DHT22;4587;51.434;6.788;2024-02-26T09:15:23;6.40;99.90
9103;DHT22;4587;51.434;6.788;2024-02-26T09:17:49;6.30;99.90
9103;DHT22;4587;51.434;6.788;2024-02-26T09:20:15;6.40;99.90
9103;DHT22;4587;51.434;6.788;2024-02-26T09:22:48;6.40;99.90
9103;DHT22;4587;51.434;6.788;2024-02-26T09:25:14;6.40;99.90
9103;DHT22;4587;51.434;6.788;2024-02-26T09:27:44;6.50;99.90
9103;DHT22;4587;51.434;6.788;2024-02-26T09:30:11;6.50;99.90
9103;DHT22;4587;51.434;6.788;2024-02-26T09:32:37;6.50;99.90
9103;DHT22;4587;51.434;6.788;2024-02-26T09:35:02;6.50;99.90
9103;DHT22;4587;51.434;6.788;2024-02-26T09:37:28;6.50;99.90
9103;DHT22;4587;51.434;6.788;2024-02-26T09:39:54;6.50;99.90
9103;DHT22;4587;51.434;6.788;2024-02-26T09:42:19;6.50;99.90
9103;DHT22;4587;51.434;6.788;2024-02-26T09:44:46;6.40;99.90
9103;DHT22;4587;51.434;6.788;2024-02-26T09:47:14;6.40;99.90
9103;DHT22;4587;51.434;6.788;2024-02-26T09:49:42;6.50;99.90
9103;DHT22;4587;51.434;6.788;2024-02-26T09:52:08;6.50;99.90
9103;DHT22;4587;51.434;6.788;2024-02-26T09:54:35;6.60;99.90
9103;DHT22;4587;51.434;6.788;2024-02-26T09:57:02;6.60;99.90
9103;DHT22;4587;51.434;6.788;2024-02-26T09:59:29;6.60;99.90
9103;DHT22;4587;51.434;6.788;2024-02-26T10:02:00;6.50;99.90
9103;DHT22;4587;51.434;6.788;2024-02-26T10:04:26;6.40;99.90
9103;DHT22;4587;51.434;6.788;2024-02-26T10:06:52;6.50;99.90
9103;DHT22;4587;51.434;6.788;2024-02-26T10:09:19;6.50;99.90
9103;DHT22;4587;51.434;6.788;2024-02-26T10:11:45;6.60;99.90
9103;DHT22;4587;51.434;6.788;2024-02-26T10:14:14;6.60;99.90
9103;DHT22;4587;51.434;6.788;2024-02-26T10:16:40;6.60;99.90
9103;DHT22;4587;51.434;6.788;2024-02-26T10:19:05;6.60;99.90
9103;DHT22;4587;51.434;6.788;2024-02-26T10:21:31;6.60;99.90
9103;DHT22;4587;51.434;6.788;2024-02-26T10:23:56;6.60;99.90
9103;DHT22;4587;51.434;6.788;2024-02-26T10:26:22;6.60;99.90
9103;DHT22;4587;51.434;6.788;2024-02-26T10:28:47;6.70;99.90
9103;DHT22;4587;51.434;6.788;2024-02-26T10:31:14;6.70;99.90
9103;DHT22;4587;51.434;6.788;2024-02-26T10:33:41;6.70;99.90
9103;DHT22;4587;51.434;6.788;2024-02-26T10:36:08;6.70;99.90
9103;DHT22;4587;51.434;6.788;2024-02-26T10:38:35;6.70;99.90
9103;DHT22;4587;51.434;6.788;2024-02-26T10:41:07;6.80;99.90
9103;DHT22;4587;51.434;6.788;2024-02-26T10:43:34;6.80;99.90
9103;DHT22;4587;51.434;6.788;2024-02-26T10:45:59;6.80;99.90
9103;DHT22;4587;51.434;6.788;2024-02-26T10:48:25;6.80;99.90
9103;DHT22;4587;51.434;6.788;2024-02-26T10:50:50;6.80;99.90
9103;DHT22;4587;51.434;6.788;2024-02-26T10:53:29;6.80;99.90
9103;DHT22;4587;51.434;6.788;2024-02-26T10:55:57;6.80;99.90
9103;DHT22;4587;51.434;6.788;2024-02-26T10:58:24;6.80;99.90
9103;DHT22;4587;51.434;6.788;2024-02-26T11:00:51;6.80;99.90
9103;DHT22;4587;51.434;6.788;2024-02-26T11:03:18;6.80;99.90
9103;DHT22;4587;51.434;6.788;2024-02-26T11:05:49;6.80;99.90
9103;DHT22;4587;51.434;6.788;2024-02-26T11:08:18;6.90;99.90
9103;DHT22;4587;51.434;6.788;2024-02-26T11:10:43;6.90;99.90
9103;DHT22;4587;51.434;6.788;2024-02-26T11:13:12;7.00;99.90
9103;DHT22;4587;51.434;6.788;2024-02-26T11:15:39;7.10;99.90
9103;DHT22;4587;51.434;6.788;2024-02-26T11:18:06;7.10;99.90
9103;DHT22;4587;51.434;6.788;2024-02-26T11:20:32;7.10;99.90
9103;DHT22;4587;51.434;6.788;2024-02-26T11:22:58;7.10;99.90
9103;DHT22;4587;51.434;6.788;2024-02-26T11:25:24;7.20;99.90
9103;DHT22;4587;51.434;6.788;2024-02-26T11:27:56;7.30;99.90
9103;DHT22;4587;51.434;6.788;2024-02-26T11:30:25;7.40;99.90
9103;DHT22;4587;51.434;6.788;2024-02-26T11:32:52;7.50;99.90
9103;DHT22;4587;51.434;6.788;2024-02-26T11:35:18;7.40;99.90
9103;DHT22;4587;51.434;6.788;2024-02-26T11:37:57;7.30;99.90
9103;DHT22;4587;51.434;6.788;2024-02-26T11:40:26;7.30;99.90
9103;DHT22;4587;51.434;6.788;2024-02-26T11:42:53;7.40;99.90
9103;DHT22;4587;51.434;6.788;2024-02-26T11:45:47;7.50;99.90
9103;DHT22;4587;51.434;6.788;2024-02-26T11:48:15;7.50;99.90
9103;DHT22;4587;51.434;6.788;2024-02-26T11:50:42;7.40;99.90
9103;DHT22;4587;51.434;6.788;2024-02-26T11:55:48;7.50;99.90
9103;DHT22;4587;51.434;6.788;2024-02-26T11:58:33;7.50;99.90
9103;DHT22;4587;51.434;6.788;2024-02-26T12:00:59;7.60;99.90
9103;DHT22;4587;51.434;6.788;2024-02-26T12:03:24;7.80;99.90
9103;DHT22;4587;51.434;6.788;2024-02-26T12:05:51;7.90;99.90
9103;DHT22;4587;51.434;6.788;2024-02-26T12:08:17;8.00;99.90
9103;DHT22;4587;51.434;6.788;2024-02-26T12:10:45;8.10;99.90
9103;DHT22;4587;51.434;6.788;2024-02-26T12:13:13;8.00;99.90
9103;DHT22;4587;51.434;6.788;2024-02-26T12:15:43;8.10;99.90
9103;DHT22;4587;51.434;6.788;2024-02-26T12:18:16;8.10;99.90
9103;DHT22;4587;51.434;6.788;2024-02-26T12:20:42;8.10;99.90
9103;DHT22;4587;51.434;6.788;2024-02-26T12:23:14;8.10;99.90
9103;DHT22;4587;51.434;6.788;2024-02-26T12:28:46;8.20;99.90
9103;DHT22;4587;51.434;6.788;2024-02-26T12:31:12;8.20;99.90
9103;DHT22;4587;51.434;6.788;2024-02-26T12:33:38;8.20;99.90
9103;DHT22;4587;51.434;6.788;2024-02-26T12:36:04;8.30;99.90
9103;DHT22;4587;51.434;6.788;2024-02-26T12:38:29;8.30;99.90
9103;DHT22;4587;51.434;6.788;2024-02-26T12:40:56;8.30;99.90
9103;DHT22;4587;51.434;6.788;2024-02-26T12:43:21;8.30;99.90
9103;DHT22;4587;51.434;6.788;2024-02-26T12:45:47;8.30;99.90
9103;DHT22;4587;51.434;6.788;2024-02-26T12:48:13;8.30;99.90
9103;DHT22;4587;51.434;6.788;2024-02-26T12:50:38;8.30;99.90
9103;DHT22;4587;51.434;6.788;2024-02-26T12:53:05;8.20;99.90
9103;DHT22;4587;51.434;6.788;2024-02-26T12:55:32;8.20;99.90
9103;DHT22;4587;51.434;6.788;2024-02-26T12:58:00;8.20;99.90
9103;DHT22;4587;51.434;6.788;2024-02-26T13:00:27;8.20;99.90
9103;DHT22;4587;51.434;6.788;2024-02-26T13:02:54;8.10;99.90
9103;DHT22;4587;51.434;6.788;2024-02-26T13:05:21;8.10;99.90
9103;DHT22;4587;51.434;6.788;2024-02-26T13:07:48;8.10;99.90
9103;DHT22;4587;51.434;6.788;2024-02-26T13:10:14;8.10;99.90
9103;DHT22;4587;51.434;6.788;2024-02-26T13:12:44;8.10;99.90
9103;DHT22;4587;51.434;6.788;2024-02-26T13:15:15;8.10;99.90
9103;DHT22;4587;51.434;6.788;2024-02-26T13:17:41;8.20;99.90
9103;DHT22;4587;51.434;6.788;2024-02-26T13:20:08;8.30;99.90
9103;DHT22;4587;51.434;6.788;2024-02-26T13:22:35;8.20;99.90
9103;DHT22;4587;51.434;6.788;2024-02-26T13:25:01;8.20;99.90
9103;DHT22;4587;51.434;6.788;2024-02-26T13:27:28;8.30;99.90
9103;DHT22;4587;51.434;6.788;2024-02-26T13:30:11;8.30;99.90
9103;DHT22;4587;51.434;6.788;2024-02-26T13:32:40;8.20;99.90
9103;DHT22;4587;51.434;6.788;2024-02-26T13:35:11;8.20;99.90
9103;DHT22;4587;51.434;6.788;2024-02-26T13:37:37;8.30;99.90
9103;DHT22;4587;51.434;6.788;2024-02-26T13:40:11;8.30;99.90
9103;DHT22;4587;51.434;6.788;2024-02-26T13:42:39;8.30;99.90
9103;DHT22;4587;51.434;6.788;2024-02-26T13:45:05;8.30;99.90
9103;DHT22;4587;51.434;6.788;2024-02-26T13:47:34;8.30;99.90
9103;DHT22;4587;51.434;6.788;2024-02-26T13:50:01;8.40;99.90
9103;DHT22;4587;51.434;6.788;2024-02-26T13:52:27;8.40;99.90
9103;DHT22;4587;51.434;6.788;2024-02-26T13:54:53;8.40;99.90
9103;DHT22;4587;51.434;6.788;2024-02-26T13:57:21;8.40;99.90
9103;DHT22;4587;51.434;6.788;2024-02-26T13:59:47;8.30;99.90
9103;DHT22;4587;51.434;6.788;2024-02-26T14:02:13;8.40;99.90
9103;DHT22;4587;51.434;6.788;2024-02-26T14:04:38;8.40;99.90
9103;DHT22;4587;51.434;6.788;2024-02-26T14:07:04;8.40;99.90
9103;DHT22;4587;51.434;6.788;2024-02-26T14:09:30;8.40;99.90
9103;DHT22;4587;51.434;6.788;2024-02-26T14:11:57;8.40;99.90
9103;DHT22;4587;51.434;6.788;2024-02-26T14:14:23;8.40;99.90
9103;DHT22;4587;51.434;6.788;2024-02-26T14:16:48;8.40;99.90
9103;DHT22;4587;51.434;6.788;2024-02-26T14:19:14;8.40;99.90
9103;DHT22;4587;51.434;6.788;2024-02-26T14:21:39;8.40;99.90
9103;DHT22;4587;51.434;6.788;2024-02-26T14:24:05;8.40;99.90
9103;DHT22;4587;51.434;6.788;2024-02-26T14:26:30;8.50;99.90
9103;DHT22;4587;51.434;6.788;2024-02-26T14:28:56;8.40;99.90
9103;DHT22;4587;51.434;6.788;2024-02-26T14:31:22;8.40;99.90
9103;DHT22;4587;51.434;6.788;2024-02-26T14:33:47;8.30;99.90
9103;DHT22;4587;51.434;6.788;2024-02-26T14:36:13;8.30;99.90
9103;DHT22;4587;51.434;6.788;2024-02-26T14:38:39;8.30;99.90
9103;DHT22;4587;51.434;6.788;2024-02-26T14:41:05;8.30;99.90
9103;DHT22;4587;51.434;6.788;2024-02-26T14:43:31;8.20;99.90
9103;DHT22;4587;51.434;6.788;2024-02-26T14:45:58;8.10;99.90
9103;DHT22;4587;51.434;6.788;2024-02-26T14:48:24;8.10;99.90
9103;DHT22;4587;51.434;6.788;2024-02-26T14:50:49;8.20;99.90
9103;DHT22;4587;51.434;6.788;2024-02-26T14:53:16;8.10;99.90
9103;DHT22;4587;51.434;6.788;2024-02-26T14:55:42;8.10;99.90
9103;DHT22;4587;51.434;6.788;2024-02-26T14:58:07;8.20;99.90
9103;DHT22;4587;51.434;6.788;2024-02-26T15:00:34;8.20;99.90
9103;DHT22;4587;51.434;6.788;2024-02-26T15:03:01;8.20;99.90
9103;DHT22;4587;51.434;6.788;2024-02-26T15:05:26;8.20;99.90
9103;DHT22;4587;51.434;6.788;2024-02-26T15:07:52;8.10;99.90
9103;DHT22;4587;51.434;6.788;2024-02-26T15:10:17;8.10;99.90
9103;DHT22;4587;51.434;6.788;2024-02-26T15:12:44;8.00;99.90
9103;DHT22;4587;51.434;6.788;2024-02-26T15:15:09;8.10;99.90
9103;DHT22;4587;51.434;6.788;2024-02-26T15:17:35;8.10;99.90
9103;DHT22;4587;51.434;6.788;2024-02-26T15:20:01;8.10;99.90
9103;DHT22;4587;51.434;6.788;2024-02-26T15:22:27;8.10;99.90
9103;DHT22;4587;51.434;6.788;2024-02-26T15:24:53;8.00;99.90
9103;DHT22;4587;51.434;6.788;2024-02-26T15:27:18;8.00;99.90
9103;DHT22;4587;51.434;6.788;2024-02-26T15:29:44;8.00;99.90
9103;DHT22;4587;51.434;6.788;2024-02-26T15:32:10;8.00;99.90
9103;DHT22;4587;51.434;6.788;2024-02-26T15:34:36;8.10;99.90
9103;DHT22;4587;51.434;6.788;2024-02-26T15:37:02;8.10;99.90
9103;DHT22;4587;51.434;6.788;2024-02-26T15:39:27;8.10;99.90
9103;DHT22;4587;51.434;6.788;2024-02-26T15:41:53;8.10;99.90
9103;DHT22;4587;51.434;6.788;2024-02-26T15:44:18;8.10;99.90
9103;DHT22;4587;51.434;6.788;2024-02-26T15:46:44;8.00;99.90
9103;DHT22;4587;51.434;6.788;2024-02-26T15:49:09;8.00;99.90
9103;DHT22;4587;51.434;6.788;2024-02-26T15:51:35;7.90;99.90
9103;DHT22;4587;51.434;6.788;2024-02-26T15:54:01;7.90;99.90
9103;DHT22;4587;51.434;6.788;2024-02-26T15:56:27;7.90;99.90
9103;DHT22;4587;51.434;6.788;2024-02-26T15:58:53;7.90;99.90
9103;DHT22;4587;51.434;6.788;2024-02-26T16:01:19;7.90;99.90
9103;DHT22;4587;51.434;6.788;2024-02-26T16:03:45;7.80;99.90
9103;DHT22;4587;51.434;6.788;2024-02-26T16:09:03;7.80;99.90
9103;DHT22;4587;51.434;6.788;2024-02-26T16:11:28;7.70;99.90
9103;DHT22;4587;51.434;6.788;2024-02-26T16:16:42;7.60;99.90
9103;DHT22;4587;51.434;6.788;2024-02-26T16:19:12;7.60;99.90
9103;DHT22;4587;51.434;6.788;2024-02-26T16:21:38;7.50;99.90
9103;DHT22;4587;51.434;6.788;2024-02-26T16:24:04;7.60;99.90